Time;durP1;ratioP1;P1;durP2;ratioP2;P2;SDS_P1;SDS_P2;PMS_P1;PMS_P2;Temp;Humidity;BMP_temperature;BMP_pressure;BME280_temperature;BME280_humidity;BME280_pressure;Samples;Min_cycle;Max_cycle;Signal;HPM_P1;HPM_P2
2023/08/29 00:00:52;;;;;;;2.35;1.02;;;;;;;25.87;63.77;99198.25;5052143;28;20720;-72
2023/08/29 00:03:18;;;;;;;0.70;0.70;;;;;;;25.92;64.33;99217.44;5052409;28;20203;-71
2023/08/29 00:05:45;;;;;;;0.70;0.70;;;;;;;25.89;64.76;99218.50;5052132;28;20218;-73
2023/08/29 00:08:13;;;;;;;0.80;0.80;;;;;;;25.91;64.79;99224.56;5052259;28;20245;-72
2023/08/29 00:10:40;;;;;;;0.93;0.80;;;;;;;25.83;64.73;99223.31;5051899;28;20207;-72
2023/08/29 00:13:07;;;;;;;0.93;0.93;;;;;;;25.80;64.56;99221.69;5051867;28;20211;-71
2023/08/29 00:15:34;;;;;;;0.60;0.60;;;;;;;25.76;65.26;99217.50;5051784;28;20204;-71
2023/08/29 00:18:01;;;;;;;2.45;1.13;;;;;;;25.75;65.92;99220.28;5051648;28;20223;-71
2023/08/29 00:20:27;;;;;;;0.60;0.60;;;;;;;25.70;66.36;99219.69;5051371;28;20253;-71
2023/08/29 00:22:55;;;;;;;0.70;0.70;;;;;;;25.74;65.20;99216.78;5051081;28;20203;-72
2023/08/29 00:25:23;;;;;;;0.65;0.65;;;;;;;25.70;66.10;99225.88;5051390;28;20198;-71
2023/08/29 00:27:50;;;;;;;1.00;1.00;;;;;;;25.56;66.28;99209.91;5032880;28;20698;-71
2023/08/29 00:30:17;;;;;;;0.70;0.70;;;;;;;25.61;66.02;99229.09;5051719;28;20210;-71
2023/08/29 00:32:44;;;;;;;0.80;0.80;;;;;;;25.59;66.35;99223.00;5051142;28;20202;-71
2023/08/29 00:35:10;;;;;;;0.90;0.90;;;;;;;25.55;66.74;99224.13;5050110;28;20199;-71
2023/08/29 00:37:37;;;;;;;0.50;0.50;;;;;;;25.67;66.25;99225.19;5050704;28;20215;-71
2023/08/29 00:40:05;;;;;;;0.70;0.70;;;;;;;25.52;66.43;99224.31;5051286;28;20203;-72
2023/08/29 00:42:33;;;;;;;0.70;0.70;;;;;;;25.46;67.09;99224.66;5051134;28;20917;-72
2023/08/29 00:45:00;;;;;;;0.63;0.63;;;;;;;25.46;67.30;99222.84;5051422;28;20191;-72
2023/08/29 00:47:27;;;;;;;0.70;0.70;;;;;;;25.38;67.36;99226.91;5051463;28;20207;-72
2023/08/29 00:49:55;;;;;;;1.65;0.95;;;;;;;25.14;67.82;99198.22;5051031;28;20196;-71
2023/08/29 00:52:21;;;;;;;1.02;1.02;;;;;;;25.30;68.13;99215.88;5051170;28;20234;-71
2023/08/29 00:54:48;;;;;;;0.80;0.80;;;;;;;25.38;67.24;99214.47;5051233;28;20200;-71
2023/08/29 00:57:15;;;;;;;0.70;0.70;;;;;;;25.48;67.15;99215.63;5050947;28;20224;-72
2023/08/29 00:59:43;;;;;;;0.60;0.60;;;;;;;25.12;67.19;99165.59;5051116;28;20219;-71
2023/08/29 01:02:10;;;;;;;0.90;0.90;;;;;;;25.40;66.78;99212.56;5051050;28;20199;-71
2023/08/29 01:04:37;;;;;;;0.65;0.65;;;;;;;25.35;67.04;99198.75;5032172;28;20215;-72
2023/08/29 01:07:05;;;;;;;0.98;0.98;;;;;;;25.39;67.51;99196.75;5051237;28;20192;-71
2023/08/29 01:09:32;;;;;;;0.82;0.82;;;;;;;25.32;67.20;99168.88;5032520;28;20195;-71
2023/08/29 01:12:08;;;;;;;0.98;0.98;;;;;;;25.41;67.23;99192.19;5051147;28;20200;-71
2023/08/29 01:14:40;;;;;;;4.20;1.20;;;;;;;25.27;67.46;99182.41;5050986;28;20188;-73
2023/08/29 01:17:13;;;;;;;0.70;0.70;;;;;;;25.18;67.92;99167.88;5051032;28;20210;-72
2023/08/29 01:19:41;;;;;;;4.28;0.88;;;;;;;25.22;68.37;99184.47;5051027;28;20655;-72
2023/08/29 01:22:23;;;;;;;0.82;0.82;;;;;;;25.18;67.98;99175.84;5051361;28;20210;-72
2023/08/29 01:24:58;;;;;;;0.60;0.60;;;;;;;25.23;67.92;99183.53;5051338;28;20249;-72
2023/08/29 01:27:27;;;;;;;0.70;0.70;;;;;;;25.24;68.04;99187.03;5050907;28;20231;-72
2023/08/29 01:29:56;;;;;;;0.80;0.80;;;;;;;24.76;69.22;99114.66;5049845;28;20203;-71
2023/08/29 01:32:23;;;;;;;0.98;0.98;;;;;;;24.97;69.80;99166.47;5050836;28;20195;-72
2023/08/29 01:34:51;;;;;;;1.35;1.25;;;;;;;25.03;70.00;99174.09;5052459;28;20226;-72
2023/08/29 01:37:18;;;;;;;0.65;0.65;;;;;;;24.92;70.49;99171.22;5054788;28;20264;-72
2023/08/29 01:39:45;;;;;;;0.60;0.60;;;;;;;24.93;70.94;99164.97;5054560;28;20203;-72
2023/08/29 01:42:12;;;;;;;0.60;0.60;;;;;;;24.94;70.28;99168.47;5054174;28;20203;-72
2023/08/29 01:44:40;;;;;;;0.80;0.80;;;;;;;24.93;70.04;99167.63;5054803;28;20687;-72
2023/08/29 01:47:06;;;;;;;0.70;0.70;;;;;;;24.88;70.80;99159.06;5054792;28;20207;-71
2023/08/29 01:49:35;;;;;;;0.90;0.90;;;;;;;24.88;70.38;99159.06;5035023;28;20621;-72
2023/08/29 01:52:02;;;;;;;0.80;0.80;;;;;;;24.86;70.68;99166.28;5035684;28;20235;-71
2023/08/29 01:54:29;;;;;;;0.70;0.70;;;;;;;24.82;70.76;99170.03;5019491;28;20682;-71
2023/08/29 01:56:59;;;;;;;0.90;0.90;;;;;;;24.84;70.49;99162.84;5054176;28;20706;-71
2023/08/29 01:59:26;;;;;;;0.70;0.70;;;;;;;24.81;70.47;99168.28;5054540;28;20223;-71
2023/08/29 02:01:55;;;;;;;2.00;1.48;;;;;;;24.77;71.09;99153.50;5054355;28;20203;-72
2023/08/29 02:04:21;;;;;;;0.68;0.68;;;;;;;24.72;70.27;99152.94;5053481;28;20199;-71
2023/08/29 02:06:48;;;;;;;0.95;0.95;;;;;;;24.69;70.93;99153.09;5054540;28;20208;-72
2023/08/29 02:09:16;;;;;;;0.80;0.80;;;;;;;24.68;70.00;99154.88;5054125;28;20195;-72
2023/08/29 02:11:42;;;;;;;0.60;0.60;;;;;;;24.72;69.38;99157.38;5038186;28;20192;-72
2023/08/29 02:14:11;;;;;;;0.70;0.70;;;;;;;24.71;69.46;99153.00;5054366;28;20199;-72
2023/08/29 02:16:38;;;;;;;0.60;0.60;;;;;;;24.59;68.64;99136.00;5053738;28;20199;-72
2023/08/29 02:19:06;;;;;;;0.90;0.90;;;;;;;24.70;68.86;99152.16;5053941;28;20195;-72
2023/08/29 02:21:33;;;;;;;0.80;0.80;;;;;;;24.58;68.73;99142.22;5054177;28;20195;-71
2023/08/29 02:24:00;;;;;;;1.60;1.50;;;;;;;24.58;67.99;99129.84;5053630;28;20231;-71
2023/08/29 02:26:27;;;;;;;0.93;0.93;;;;;;;24.73;67.88;99159.91;5054060;28;20635;-71
2023/08/29 02:28:54;;;;;;;0.60;0.60;;;;;;;24.57;67.59;99135.25;5053945;28;20249;-71
2023/08/29 02:31:21;;;;;;;0.63;0.63;;;;;;;24.73;67.42;99159.06;5054162;28;20207;-72
2023/08/29 02:33:49;;;;;;;0.77;0.77;;;;;;;24.74;67.31;99156.34;5053488;28;20195;-72
2023/08/29 02:36:17;;;;;;;0.80;0.80;;;;;;;24.65;67.43;99140.94;5053809;28;20206;-72
2023/08/29 02:38:43;;;;;;;1.10;1.10;;;;;;;24.57;69.00;99137.91;5053237;28;20230;-71
2023/08/29 02:41:11;;;;;;;1.00;1.00;;;;;;;24.69;67.53;99153.09;5053209;28;20206;-71
2023/08/29 02:43:38;;;;;;;0.60;0.60;;;;;;;24.65;66.71;99148.91;5053907;28;20203;-71
2023/08/29 02:46:05;;;;;;;0.75;0.75;;;;;;;24.62;67.23;99149.06;5053380;28;20206;-71
2023/08/29 02:48:32;;;;;;;0.70;0.70;;;;;;;24.52;67.08;99137.28;5053351;28;20214;-71
2023/08/29 02:50:58;;;;;;;0.68;0.68;;;;;;;24.63;67.02;99145.50;5053158;28;20195;-71
2023/08/29 02:53:27;;;;;;;0.63;0.63;;;;;;;24.59;66.67;99136.00;5053341;28;20277;-72
2023/08/29 02:55:54;;;;;;;1.23;1.23;;;;;;;24.54;66.54;99135.44;5018129;28;20711;-72
2023/08/29 02:58:21;;;;;;;0.70;0.70;;;;;;;24.55;66.62;99135.31;5053793;28;20234;-72
2023/08/29 03:00:48;;;;;;;0.85;0.85;;;;;;;24.56;66.67;99130.88;5018230;28;20199;-72
2023/08/29 03:03:14;;;;;;;0.60;0.60;;;;;;;24.41;66.63;99115.84;5052833;28;20655;-73
2023/08/29 03:05:42;;;;;;;0.50;0.50;;;;;;;24.45;66.80;99122.69;5052937;28;20635;-71
2023/08/29 03:08:09;;;;;;;0.80;0.80;;;;;;;24.48;67.06;99123.34;5052934;28;20592;-72
2023/08/29 03:10:38;;;;;;;1.02;1.02;;;;;;;24.43;66.98;99119.28;5052742;28;20227;-72
2023/08/29 03:13:05;;;;;;;0.70;0.70;;;;;;;24.24;67.38;99115.94;5053551;28;20637;-71
2023/08/29 03:15:33;;;;;;;0.70;0.70;;;;;;;24.24;68.10;99129.19;5052611;28;20570;-72
2023/08/29 03:18:00;;;;;;;0.70;0.70;;;;;;;24.29;67.42;99103.31;5052667;28;20273;-72
2023/08/29 03:20:27;;;;;;;1.20;1.20;;;;;;;24.38;68.14;99116.00;5047464;28;20227;-72
2023/08/29 03:22:53;;;;;;;0.63;0.63;;;;;;;24.41;67.21;99121.13;5033975;28;20216;-71
2023/08/29 03:25:20;;;;;;;0.88;0.73;;;;;;;24.34;67.10;99112.69;5052828;28;20227;-72
2023/08/29 03:27:49;;;;;;;0.90;0.90;;;;;;;24.28;67.49;99114.84;5014602;28;20247;-72
2023/08/29 03:30:16;;;;;;;0.60;0.60;;;;;;;24.31;67.68;99118.16;5050274;28;20204;-72
2023/08/29 03:32:43;;;;;;;0.80;0.80;;;;;;;24.32;67.13;99106.63;5051700;28;20667;-72
2023/08/29 03:35:09;;;;;;;0.80;0.80;;;;;;;24.41;66.61;99113.19;5017639;28;20573;-72
2023/08/29 03:37:36;;;;;;;0.70;0.70;;;;;;;24.32;66.40;99109.28;5033649;28;20223;-72
2023/08/29 03:40:04;;;;;;;0.70;0.70;;;;;;;24.44;66.23;99113.00;5016650;28;20203;-71
2023/08/29 03:42:30;;;;;;;0.93;0.93;;;;;;;24.49;65.59;99110.97;5033603;28;20686;-72
2023/08/29 03:44:58;;;;;;;0.70;0.70;;;;;;;24.54;65.47;99108.91;5052214;28;20200;-72
2023/08/29 03:47:25;;;;;;;0.93;0.93;;;;;;;24.58;65.75;99113.06;5052331;28;20218;-73
2023/08/29 03:49:53;;;;;;;0.80;0.80;;;;;;;24.57;65.38;99120.19;5052264;28;20211;-73
2023/08/29 03:52:23;;;;;;;0.70;0.70;;;;;;;24.71;64.75;99115.88;5050767;28;20330;-73
2023/08/29 03:54:50;;;;;;;0.70;0.70;;;;;;;24.61;64.87;99111.09;5049510;28;20214;-73
2023/08/29 03:57:16;;;;;;;1.15;1.15;;;;;;;24.85;65.09;99127.44;5051008;28;20208;-72
2023/08/29 03:59:43;;;;;;;0.80;0.77;;;;;;;24.81;64.47;99091.41;5051522;28;20195;-71
2023/08/29 04:02:11;;;;;;;0.60;0.60;;;;;;;25.32;62.15;99123.75;5051252;28;20199;-72
2023/08/29 04:04:38;;;;;;;0.98;0.98;;;;;;;25.46;60.46;99103.41;5051803;28;20199;-71
2023/08/29 04:07:05;;;;;;;2.65;1.35;;;;;;;25.96;58.59;99129.50;5051553;28;20276;-71
2023/08/29 04:09:32;;;;;;;0.60;0.60;;;;;;;26.15;57.12;99124.72;5051941;28;20276;-72
2023/08/29 04:11:59;;;;;;;0.70;0.70;;;;;;;26.51;55.80;99131.28;5051638;28;20213;-72
2023/08/29 04:14:26;;;;;;;1.27;1.13;;;;;;;26.99;54.15;99122.75;5051469;28;20534;-71
2023/08/29 04:16:53;;;;;;;0.60;0.60;;;;;;;27.32;53.21;99132.94;5051704;28;20199;-72
2023/08/29 04:19:21;;;;;;;1.13;1.13;;;;;;;27.78;51.03;99122.63;5051787;28;20245;-72
2023/08/29 04:21:49;;;;;;;1.02;1.02;;;;;;;27.94;49.85;99083.25;5051539;28;20740;-72
2023/08/29 04:24:16;;;;;;;4.28;1.15;;;;;;;28.47;48.35;99127.38;5049587;28;20277;-73
2023/08/29 04:26:42;;;;;;;0.50;0.50;;;;;;;28.65;48.82;99133.16;5051474;28;20218;-71
2023/08/29 04:29:09;;;;;;;0.60;0.60;;;;;;;28.86;48.55;99126.25;5051422;28;20260;-71
2023/08/29 04:31:36;;;;;;;1.25;1.15;;;;;;;29.25;46.40;99109.00;5051410;28;20208;-72
2023/08/29 04:34:02;;;;;;;0.55;0.55;;;;;;;29.80;45.97;99136.81;5051818;28;20209;-73
2023/08/29 04:36:31;;;;;;;0.60;0.60;;;;;;;30.23;44.16;99128.91;5051280;28;20282;-71
2023/08/29 04:38:57;;;;;;;0.60;0.60;;;;;;;30.33;44.65;99127.19;5016154;28;20234;-70
2023/08/29 04:41:24;;;;;;;0.70;0.70;;;;;;;30.56;43.64;99115.50;5030060;28;20256;-71
2023/08/29 04:43:51;;;;;;;0.93;0.93;;;;;;;30.90;43.57;99130.44;5051040;28;20203;-71
2023/08/29 04:46:18;;;;;;;0.88;0.88;;;;;;;31.18;42.69;99129.00;5051513;28;20205;-70
2023/08/29 04:48:44;;;;;;;0.77;0.77;;;;;;;31.55;41.63;99126.75;5051343;28;20211;-70
2023/08/29 04:51:11;;;;;;;0.77;0.77;;;;;;;32.10;40.77;99144.25;5051315;28;20202;-71
2023/08/29 04:53:39;;;;;;;0.60;0.60;;;;;;;32.55;39.90;99133.91;5050899;28;20242;-71
2023/08/29 04:56:07;;;;;;;0.70;0.70;;;;;;;32.61;39.13;99130.69;5051410;28;20211;-70
2023/08/29 04:58:34;;;;;;;0.80;0.80;;;;;;;32.68;38.40;99118.41;5051558;28;20218;-71
2023/08/29 05:01:01;;;;;;;0.70;0.70;;;;;;;32.54;38.87;99126.81;5051521;28;20201;-70
2023/08/29 05:03:28;;;;;;;0.80;0.80;;;;;;;33.04;38.34;99134.78;5050279;28;20245;-74
2023/08/29 05:05:55;;;;;;;0.85;0.85;;;;;;;33.08;38.13;99114.72;5051135;28;20284;-74
2023/08/29 05:08:22;;;;;;;0.88;0.88;;;;;;;32.86;37.85;99130.13;5033288;28;20232;-72
2023/08/29 05:10:50;;;;;;;0.70;0.70;;;;;;;32.83;37.95;99138.47;5052617;28;20760;-73
2023/08/29 05:13:17;;;;;;;0.82;0.82;;;;;;;31.98;39.56;99144.44;5055464;28;20290;-74
2023/08/29 05:15:44;;;;;;;0.77;0.77;;;;;;;31.46;39.90;99130.19;5055396;28;20221;-73
2023/08/29 05:18:11;;;;;;;0.65;0.65;;;;;;;30.63;41.40;99118.50;5055283;28;20231;-73
2023/08/29 05:20:38;;;;;;;0.70;0.70;;;;;;;30.72;41.76;99104.34;5041338;28;20206;-72
2023/08/29 05:23:05;;;;;;;0.68;0.68;;;;;;;30.59;42.26;99120.59;5055305;28;20238;-72
2023/08/29 05:25:32;;;;;;;0.60;0.60;;;;;;;30.60;43.12;99114.28;5054824;28;20206;-72
2023/08/29 05:28:00;;;;;;;0.77;0.77;;;;;;;30.58;43.79;99118.88;5054659;28;20242;-74
2023/08/29 05:30:27;;;;;;;1.52;1.42;;;;;;;30.53;43.60;99112.22;5054362;28;20210;-73
2023/08/29 05:32:55;;;;;;;1.27;1.27;;;;;;;30.27;43.98;99098.28;5055032;28;20215;-72
2023/08/29 05:35:22;;;;;;;0.80;0.80;;;;;;;29.89;45.13;99112.94;5055049;28;20230;-73
2023/08/29 05:37:48;;;;;;;1.13;1.13;;;;;;;29.52;45.63;99098.06;5034314;28;20221;-75
2023/08/29 05:40:15;;;;;;;0.70;0.70;;;;;;;29.36;46.32;99111.75;5054917;28;20218;-74
2023/08/29 05:42:42;;;;;;;1.23;1.20;;;;;;;28.95;46.88;99096.22;5021672;28;20191;-73
2023/08/29 05:45:11;;;;;;;1.35;1.35;;;;;;;28.87;47.73;99109.28;5054913;28;20210;-74
2023/08/29 05:47:38;;;;;;;0.70;0.70;;;;;;;28.76;47.72;99090.56;5054369;28;20269;-75
2023/08/29 05:50:06;;;;;;;21.45;12.10;;;;;;;28.73;48.64;99097.94;5052939;28;20286;-72
2023/08/29 05:52:32;;;;;;;1.85;1.17;;;;;;;28.71;47.83;99087.41;5053079;28;20645;-73
2023/08/29 05:54:59;;;;;;;1.17;0.90;;;;;;;28.83;47.83;99102.47;5054921;28;20650;-70
2023/08/29 05:57:26;;;;;;;1.42;1.33;;;;;;;28.89;47.86;99083.34;5054602;28;20600;-73
2023/08/29 05:59:54;;;;;;;0.70;0.70;;;;;;;28.97;47.82;99090.72;5054660;28;20225;-71
2023/08/29 06:02:22;;;;;;;0.70;0.70;;;;;;;29.09;46.84;99080.94;5054487;28;20199;-71
2023/08/29 06:04:49;;;;;;;0.80;0.80;;;;;;;29.14;46.05;99089.47;5054125;28;20198;-71
2023/08/29 06:07:15;;;;;;;0.80;0.80;;;;;;;29.31;45.95;99089.03;5051184;28;20203;-70
2023/08/29 06:09:42;;;;;;;0.70;0.70;;;;;;;29.42;45.77;99097.06;5010033;28;20647;-71
2023/08/29 06:12:10;;;;;;;0.90;0.90;;;;;;;29.62;45.10;99096.34;5054305;28;20202;-72
2023/08/29 06:14:37;;;;;;;0.73;0.73;;;;;;;29.65;44.01;99097.94;5053772;28;20218;-71
2023/08/29 06:17:04;;;;;;;0.70;0.70;;;;;;;29.87;44.36;99096.13;5054483;28;20206;-71
2023/08/29 06:19:32;;;;;;;0.60;0.60;;;;;;;30.00;44.21;99090.69;5035249;28;20241;-70
2023/08/29 06:21:59;;;;;;;3.65;1.98;;;;;;;30.11;43.17;99090.63;5053096;28;20198;-70
2023/08/29 06:24:26;;;;;;;0.82;0.82;;;;;;;30.30;42.84;99092.66;5054243;28;20206;-71
2023/08/29 06:26:52;;;;;;;0.65;0.65;;;;;;;30.26;42.73;99099.25;5053800;28;20202;-72
2023/08/29 06:29:19;;;;;;;0.82;0.82;;;;;;;30.51;42.96;99107.00;5019070;28;20211;-70
2023/08/29 06:31:46;;;;;;;1.00;1.00;;;;;;;30.58;41.99;99094.81;5018183;28;20207;-72
2023/08/29 06:34:13;;;;;;;0.60;0.60;;;;;;;30.80;41.50;99092.03;5052187;28;20213;-70
2023/08/29 06:36:41;;;;;;;0.70;0.70;;;;;;;30.82;40.46;99076.69;5053827;28;20199;-70
2023/08/29 06:39:08;;;;;;;0.68;0.68;;;;;;;30.86;39.95;99091.53;5018261;28;20223;-69
2023/08/29 06:41:36;;;;;;;0.88;0.88;;;;;;;31.01;40.44;99100.13;5046524;28;20218;-72
2023/08/29 06:44:02;;;;;;;0.80;0.80;;;;;;;31.20;40.89;99099.41;5053598;28;20639;-68
2023/08/29 06:46:29;;;;;;;0.60;0.60;;;;;;;31.11;40.15;99092.19;5042598;28;20199;-69
2023/08/29 06:48:56;;;;;;;0.88;0.82;;;;;;;31.22;40.17;99084.91;5033762;28;20207;-69
2023/08/29 06:51:23;;;;;;;0.60;0.60;;;;;;;31.31;39.31;99096.66;5033596;28;20594;-69
2023/08/29 06:53:52;;;;;;;0.60;0.60;;;;;;;31.46;39.38;99093.50;5020939;28;20294;-69
2023/08/29 06:56:19;;;;;;;0.60;0.60;;;;;;;31.40;38.27;99094.03;5053827;28;20217;-72
2023/08/29 06:58:46;;;;;;;0.75;0.75;;;;;;;31.57;38.76;99102.50;5053460;28;20292;-68
2023/08/29 07:01:14;;;;;;;0.80;0.80;;;;;;;31.71;38.56;99105.66;5053498;28;20203;-68
2023/08/29 07:03:40;;;;;;;0.80;0.80;;;;;;;31.91;38.89;99101.22;5046728;28;20680;-71
2023/08/29 07:06:07;;;;;;;0.63;0.63;;;;;;;31.95;37.99;99114.22;5033688;28;20200;-70
2023/08/29 07:08:34;;;;;;;0.50;0.50;;;;;;;31.91;37.67;99107.44;5033452;28;20577;-69
2023/08/29 07:11:02;;;;;;;0.60;0.60;;;;;;;31.99;37.70;99119.31;5033348;28;20201;-71
2023/08/29 07:13:29;;;;;;;0.80;0.80;;;;;;;32.07;37.24;99116.84;5033231;28;20208;-72
2023/08/29 07:15:56;;;;;;;1.77;0.98;;;;;;;32.10;36.75;99108.53;5033218;28;20206;-72
2023/08/29 07:18:23;;;;;;;0.77;0.77;;;;;;;32.21;36.88;99097.69;5033082;28;20238;-74
2023/08/29 07:20:50;;;;;;;0.85;0.85;;;;;;;32.30;35.94;99111.13;5033336;28;20223;-69
2023/08/29 07:23:16;;;;;;;0.60;0.60;;;;;;;32.38;36.52;99105.06;5033310;28;20592;-70
2023/08/29 07:25:44;;;;;;;0.60;0.60;;;;;;;32.44;36.20;99099.13;5033154;28;20691;-67
2023/08/29 07:28:14;;;;;;;0.88;0.88;;;;;;;32.62;36.45;99105.53;5032944;28;20198;-71
2023/08/29 07:30:44;;;;;;;0.60;0.60;;;;;;;32.39;36.73;99032.44;5050198;28;20206;-70
2023/08/29 07:33:11;;;;;;;0.60;0.60;;;;;;;32.77;35.93;99085.34;5051991;28;20245;-71
2023/08/29 07:35:39;;;;;;;0.77;0.77;;;;;;;32.99;36.01;99108.38;5052724;28;20671;-71
2023/08/29 07:38:06;;;;;;;0.70;0.70;;;;;;;32.93;35.45;99093.66;5052995;28;20198;-70
2023/08/29 07:40:33;;;;;;;0.70;0.70;;;;;;;32.99;34.92;99113.75;5052328;28;20772;-71
2023/08/29 07:43:02;;;;;;;0.80;0.80;;;;;;;33.00;35.09;99114.59;5017345;28;20756;-71
2023/08/29 07:45:30;;;;;;;0.95;0.95;;;;;;;33.13;35.82;99123.25;5052152;28;20206;-72
2023/08/29 07:47:57;;;;;;;0.77;0.77;;;;;;;33.15;35.25;99123.94;5051816;28;20206;-73
2023/08/29 07:50:24;;;;;;;0.73;0.73;;;;;;;32.63;34.78;99045.50;5051679;28;20191;-73
2023/08/29 07:52:51;;;;;;;0.70;0.70;;;;;;;33.17;35.21;99119.28;5051556;28;20722;-74
2023/08/29 07:55:18;;;;;;;0.90;0.90;;;;;;;33.23;35.54;99119.56;5051721;28;20211;-74
2023/08/29 07:57:45;;;;;;;0.82;0.82;;;;;;;33.40;34.57;99113.44;5051531;28;20278;-72
2023/08/29 08:00:14;;;;;;;0.80;0.80;;;;;;;33.54;34.90;99117.50;5051866;28;20230;-71
2023/08/29 08:02:42;;;;;;;0.70;0.70;;;;;;;33.52;34.67;99105.19;5059269;28;20197;-72
2023/08/29 08:05:11;;;;;;;0.98;0.98;;;;;;;33.74;35.00;99112.94;5071095;28;20236;-72
2023/08/29 08:07:38;;;;;;;0.60;0.60;;;;;;;33.71;34.92;99114.06;5053255;28;20203;-72
2023/08/29 08:10:06;;;;;;;0.70;0.70;;;;;;;33.67;33.91;99115.38;5060780;28;20195;-72
2023/08/29 08:12:34;;;;;;;0.70;0.70;;;;;;;33.25;34.01;99046.81;5051678;28;20203;-72
2023/08/29 08:15:00;;;;;;;0.70;0.70;;;;;;;33.75;34.71;99120.84;5051533;28;20275;-72
2023/08/29 08:17:27;;;;;;;0.90;0.90;;;;;;;33.75;34.52;99120.84;5043178;28;20206;-70
2023/08/29 08:19:56;;;;;;;0.60;0.60;;;;;;;33.71;34.46;99124.81;5059205;28;20233;-72
2023/08/29 08:22:23;;;;;;;0.60;0.60;;;;;;;33.64;34.37;99118.34;5051115;28;20265;-72
2023/08/29 08:24:50;;;;;;;0.90;0.90;;;;;;;33.75;35.25;99114.63;5051464;28;20218;-72
2023/08/29 08:27:17;;;;;;;0.60;0.60;;;;;;;33.86;34.98;99101.00;5065263;28;20217;-71
2023/08/29 08:29:44;;;;;;;1.30;1.20;;;;;;;33.87;34.94;99106.22;5059965;28;20218;-72
2023/08/29 08:32:11;;;;;;;0.82;0.82;;;;;;;34.03;34.42;99123.59;5070932;28;20209;-73
2023/08/29 08:34:38;;;;;;;0.55;0.55;;;;;;;33.85;34.54;99062.47;5071076;28;20222;-72
2023/08/29 08:37:06;;;;;;;1.00;1.00;;;;;;;34.13;34.83;99109.13;5063775;28;20587;-72
2023/08/29 08:39:33;;;;;;;0.73;0.73;;;;;;;34.10;34.61;99105.84;5050509;28;20590;-71
2023/08/29 08:42:03;;;;;;;1.65;1.00;;;;;;;34.11;34.98;99112.91;5057838;28;20206;-71
2023/08/29 08:44:32;;;;;;;0.70;0.70;;;;;;;34.16;34.54;99094.50;5070464;28;20689;-74
2023/08/29 08:46:59;;;;;;;1.00;1.00;;;;;;;34.17;35.24;99104.28;5070860;28;20583;-73
2023/08/29 08:49:27;;;;;;;1.10;1.10;;;;;;;34.05;34.65;99095.53;5070698;28;20236;-73
2023/08/29 08:51:55;;;;;;;1.17;1.17;;;;;;;34.19;35.02;99094.19;5071534;28;20308;-72
2023/08/29 08:54:25;;;;;;;1.13;1.13;;;;;;;34.32;35.09;99108.13;5055647;28;20206;-73
2023/08/29 08:56:57;;;;;;;1.10;1.10;;;;;;;34.40;34.67;99094.78;5023580;28;20202;-74
2023/08/29 08:59:24;;;;;;;0.95;0.95;;;;;;;34.29;34.90;99076.13;5071008;28;20299;-73
2023/08/29 09:01:51;;;;;;;1.00;1.00;;;;;;;34.46;35.45;99093.34;5070949;28;20202;-72
2023/08/29 09:04:18;;;;;;;1.67;1.60;;;;;;;34.53;35.44;99087.19;5070789;28;20228;-73
2023/08/29 09:06:45;;;;;;;2.10;2.00;;;;;;;34.33;35.50;99083.78;5071194;28;20202;-73
2023/08/29 09:09:19;;;;;;;1.20;1.20;;;;;;;34.34;35.84;99063.09;5071394;28;20206;-73
2023/08/29 09:11:53;;;;;;;1.15;1.15;;;;;;;34.57;35.47;99087.72;5071017;28;20589;-74
2023/08/29 09:14:20;;;;;;;0.82;0.82;;;;;;;34.64;35.63;99086.16;5070941;28;20201;-72
2023/08/29 09:16:47;;;;;;;0.90;0.90;;;;;;;34.65;35.15;99087.81;5070444;28;20284;-74
2023/08/29 09:19:16;;;;;;;0.70;0.70;;;;;;;34.70;35.35;99070.22;5070835;28;20275;-73
2023/08/29 09:21:44;;;;;;;6.32;2.55;;;;;;;34.57;35.71;99064.31;5069719;28;20202;-74
2023/08/29 09:24:12;;;;;;;1.08;1.08;;;;;;;34.63;36.37;99076.38;5058399;28;20201;-73
2023/08/29 09:26:39;;;;;;;1.33;1.33;;;;;;;34.57;35.92;99061.63;5070563;28;20259;-74
2023/08/29 09:29:18;;;;;;;0.85;0.85;;;;;;;34.68;35.71;99061.41;5056299;28;20206;-73
2023/08/29 09:31:46;;;;;;;0.80;0.80;;;;;;;34.19;35.60;99016.16;5035323;28;20732;-73
2023/08/29 09:34:28;;;;;;;1.25;1.25;;;;;;;34.64;35.66;99065.41;5042931;28;20550;-72
2023/08/29 09:36:56;;;;;;;0.95;0.95;;;;;;;34.70;35.54;99054.06;5070558;28;20608;-73
2023/08/29 09:39:23;;;;;;;1.90;1.83;;;;;;;34.88;35.77;99056.72;5070720;28;20230;-74
2023/08/29 09:42:05;;;;;;;1.00;1.00;;;;;;;34.85;35.34;99033.63;5070711;28;20203;-74
2023/08/29 09:44:37;;;;;;;0.85;0.85;;;;;;;35.10;35.27;99063.47;5070864;28;20194;-71
2023/08/29 09:47:05;;;;;;;1.00;1.00;;;;;;;34.93;35.91;99042.75;5070660;28;20194;-71
2023/08/29 09:49:41;;;;;;;0.73;0.73;;;;;;;35.11;34.59;99035.50;5052296;28;20194;-69
2023/08/29 09:52:09;;;;;;;1.30;1.30;;;;;;;35.24;34.96;99062.94;5070389;28;20690;-72
2023/08/29 09:54:40;;;;;;;1.00;1.00;;;;;;;35.15;35.46;99042.28;5035384;28;20661;-71
2023/08/29 09:57:09;;;;;;;1.08;1.00;;;;;;;35.32;34.90;99049.47;5038834;28;20191;-72
2023/08/29 09:59:40;;;;;;;1.00;1.00;;;;;;;35.36;34.39;99029.28;5074169;28;20229;-72
2023/08/29 10:02:09;;;;;;;1.10;1.10;;;;;;;35.36;35.16;99023.03;5073983;28;20674;-72
2023/08/29 10:04:38;;;;;;;0.80;0.80;;;;;;;35.63;34.84;99048.03;5074116;28;20265;-72
2023/08/29 10:07:07;;;;;;;1.00;1.00;;;;;;;35.75;35.29;99056.66;5073877;28;20209;-72
2023/08/29 10:09:35;;;;;;;0.60;0.60;;;;;;;35.58;34.86;99049.47;5074106;28;20194;-72
2023/08/29 10:12:03;;;;;;;0.73;0.73;;;;;;;35.55;34.05;99050.63;5073960;28;20198;-72
2023/08/29 10:14:32;;;;;;;0.80;0.80;;;;;;;35.59;34.08;99034.97;5038985;28;20548;-72
2023/08/29 10:17:01;;;;;;;0.98;0.98;;;;;;;35.61;34.01;99033.84;5060983;28;20211;-72
2023/08/29 10:19:30;;;;;;;0.75;0.75;;;;;;;35.60;34.33;99034.81;5052205;28;20230;-72
2023/08/29 10:21:57;;;;;;;1.45;1.35;;;;;;;35.64;34.28;99030.81;5053505;28;20215;-72
2023/08/29 10:24:25;;;;;;;1.20;1.20;;;;;;;35.55;33.28;99033.59;5051777;28;20218;-71
2023/08/29 10:26:53;;;;;;;1.20;1.20;;;;;;;35.57;33.94;99042.38;5053085;28;20761;-71
2023/08/29 10:29:20;;;;;;;1.02;1.02;;;;;;;35.52;34.32;99034.78;5050427;28;20663;-71
2023/08/29 10:31:48;;;;;;;1.20;1.20;;;;;;;35.44;34.38;99040.13;5034194;28;20199;-71
2023/08/29 10:34:16;;;;;;;1.30;1.30;;;;;;;35.53;34.35;99020.25;5052674;28;20702;-71
2023/08/29 10:36:46;;;;;;;0.90;0.90;;;;;;;35.63;33.66;99041.78;5052980;28;20211;-71
2023/08/29 10:39:15;;;;;;;0.90;0.90;;;;;;;35.61;33.52;99055.41;5052539;28;20207;-72
2023/08/29 10:41:45;;;;;;;2.65;2.25;;;;;;;35.70;34.35;99032.03;5050299;28;20222;-72
2023/08/29 10:44:36;;;;;;;1.35;1.35;;;;;;;35.97;33.82;99050.69;5052332;28;20657;-72
2023/08/29 10:47:19;;;;;;;1.10;1.10;;;;;;;35.83;34.05;99028.84;5050228;28;20635;-71
2023/08/29 10:49:48;;;;;;;1.20;1.20;;;;;;;35.89;33.73;99036.31;5050813;28;20195;-72
2023/08/29 10:52:18;;;;;;;1.00;1.00;;;;;;;35.94;34.40;99044.75;5052483;28;20226;-71
2023/08/29 10:54:45;;;;;;;0.95;0.95;;;;;;;35.93;34.01;99053.84;5052158;28;20187;-71
2023/08/29 10:57:29;;;;;;;0.98;0.98;;;;;;;35.78;33.89;99043.69;5050514;28;20234;-72
2023/08/29 10:59:56;;;;;;;1.42;0.85;;;;;;;35.59;34.19;99011.56;5052520;28;20225;-73
2023/08/29 11:02:27;;;;;;;0.85;0.85;;;;;;;35.87;34.39;99038.31;5052695;28;20206;-72
2023/08/29 11:05:11;;;;;;;1.02;1.02;;;;;;;35.98;33.36;99035.34;5052863;28;20195;-72
2023/08/29 11:07:39;;;;;;;0.90;0.90;;;;;;;35.88;33.86;99034.63;5052441;28;20203;-72
2023/08/29 11:10:17;;;;;;;1.42;1.33;;;;;;;35.78;33.64;99030.19;5052630;28;20199;-72
2023/08/29 11:13:03;;;;;;;1.17;1.17;;;;;;;36.13;33.83;99022.94;5052615;28;20221;-72
2023/08/29 11:16:07;;;;;;;1.10;1.10;;;;;;;36.41;32.74;99016.22;5052779;28;20264;-72
2023/08/29 11:18:34;;;;;;;0.70;0.70;;;;;;;36.46;32.17;99013.03;5052586;28;20191;-72
2023/08/29 11:21:07;;;;;;;1.00;1.00;;;;;;;36.38;32.68;98994.97;5052627;28;20226;-71
2023/08/29 11:23:41;;;;;;;0.80;0.80;;;;;;;36.34;32.75;99006.25;5034247;28;20240;-72
2023/08/29 11:26:09;;;;;;;0.80;0.80;;;;;;;36.42;33.41;98996.31;5052549;28;20195;-72
2023/08/29 11:28:41;;;;;;;1.42;1.17;;;;;;;36.43;33.29;98987.19;5052231;28;20752;-72
2023/08/29 11:31:08;;;;;;;1.08;1.08;;;;;;;36.38;33.61;98981.47;5052325;28;20199;-72
2023/08/29 11:33:36;;;;;;;0.70;0.70;;;;;;;36.52;33.45;98979.94;5052486;28;20195;-72
2023/08/29 11:36:04;;;;;;;0.70;0.70;;;;;;;36.49;33.53;98986.53;5049974;28;20203;-72
2023/08/29 11:38:34;;;;;;;0.80;0.80;;;;;;;36.41;32.98;98983.81;5051870;28;20226;-72